createdAt,value
2018-07-19T00:00:02.511Z,934.05
2018-07-19T00:01:02.462Z,934.07
2018-07-19T00:02:02.526Z,934.05
2018-07-19T00:03:02.379Z,934.00
2018-07-19T00:04:02.336Z,934.02
2018-07-19T00:05:02.288Z,934.03
2018-07-19T00:06:02.244Z,934.06
2018-07-19T00:07:02.201Z,934.06
2018-07-19T00:08:02.309Z,934.07
2018-07-19T00:09:02.111Z,934.13
2018-07-19T00:10:02.067Z,934.10
2018-07-19T00:11:02.221Z,934.09
2018-07-19T00:12:01.976Z,934.08
2018-07-19T00:13:01.931Z,934.12
2018-07-19T00:14:02.287Z,934.13
2018-07-19T00:15:03.042Z,934.10
2018-07-19T00:16:01.795Z,934.12
2018-07-19T00:17:01.750Z,934.15
2018-07-19T00:18:01.712Z,934.08
2018-07-19T00:19:01.671Z,934.12
2018-07-19T00:20:01.713Z,934.08
2018-07-19T00:21:01.568Z,934.08
2018-07-19T00:22:01.524Z,934.07
2018-07-19T00:23:01.477Z,934.06
2018-07-19T00:24:01.433Z,934.02
2018-07-19T00:25:01.387Z,934.08
2018-07-19T00:26:01.442Z,934.10
2018-07-19T00:27:01.303Z,934.07
2018-07-19T00:28:01.252Z,934.06
2018-07-19T00:29:01.207Z,934.05
2018-07-19T00:30:01.162Z,934.05
2018-07-19T00:31:01.118Z,934.08
2018-07-19T00:32:01.172Z,934.10
2018-07-19T00:33:01.026Z,934.07
2018-07-19T00:34:01.059Z,934.09
2018-07-19T00:35:00.935Z,934.06
2018-07-19T00:36:00.894Z,934.10
2018-07-19T00:37:00.844Z,934.13
2018-07-19T00:38:05.309Z,934.09
2018-07-19T00:39:00.757Z,934.13
2018-07-19T00:40:00.910Z,934.14
2018-07-19T00:41:00.664Z,934.20
2018-07-19T00:42:00.618Z,934.19
2018-07-19T00:43:00.573Z,934.17
2018-07-19T00:44:00.628Z,934.19
2018-07-19T00:45:00.482Z,934.25
2018-07-19T00:46:00.437Z,934.18
2018-07-19T00:47:00.392Z,934.20
2018-07-19T00:48:00.348Z,934.18
2018-07-19T00:49:00.301Z,934.21
2018-07-19T00:50:00.360Z,934.23
2018-07-19T00:51:00.212Z,934.25
2018-07-19T00:52:00.165Z,934.20
2018-07-19T00:53:00.120Z,934.23
2018-07-19T00:54:00.075Z,934.23
2018-07-19T00:55:00.030Z,934.22
2018-07-19T00:56:00.084Z,934.19
2018-07-19T00:56:59.942Z,934.27
2018-07-19T00:58:00.095Z,934.23
2018-07-19T00:58:59.850Z,934.26
2018-07-19T00:59:59.804Z,934.23
2018-07-19T01:00:59.758Z,934.27
2018-07-19T01:02:04.674Z,934.26
2018-07-19T01:02:59.667Z,934.28
2018-07-19T01:03:59.625Z,934.26
2018-07-19T01:04:59.576Z,934.27
2018-07-19T01:05:59.531Z,934.26
2018-07-19T01:06:59.489Z,934.29
2018-07-19T01:07:59.541Z,934.29
2018-07-19T01:08:59.396Z,934.30
2018-07-19T01:09:59.349Z,934.26
2018-07-19T01:10:59.305Z,934.29
2018-07-19T01:11:59.259Z,934.31
2018-07-19T01:12:59.214Z,934.31
2018-07-19T01:13:59.418Z,934.32
2018-07-19T01:14:59.123Z,934.34
2018-07-19T01:15:59.077Z,934.34
2018-07-19T01:16:59.032Z,934.37
2018-07-19T01:17:58.987Z,934.33
2018-07-19T01:18:59.042Z,934.35
2018-07-19T01:19:58.895Z,934.37
2018-07-19T01:20:58.851Z,934.34
2018-07-19T01:21:58.805Z,934.33
2018-07-19T01:22:58.761Z,934.35
2018-07-19T01:23:58.713Z,934.35
2018-07-19T01:25:02.025Z,934.33
2018-07-19T01:25:58.623Z,934.33
2018-07-19T01:26:58.779Z,934.28
2018-07-19T01:27:58.533Z,934.29
2018-07-19T01:28:58.487Z,934.30
2018-07-19T01:29:58.440Z,934.24
2018-07-19T01:31:01.852Z,934.24
2018-07-19T01:31:58.353Z,934.26
2018-07-19T01:32:58.303Z,934.27
2018-07-19T01:33:58.258Z,934.27
2018-07-19T01:34:58.213Z,934.27
2018-07-19T01:35:58.168Z,934.23
2018-07-19T01:36:58.224Z,934.30
2018-07-19T01:37:58.279Z,934.21
2018-07-19T01:38:58.031Z,934.27
2018-07-19T01:39:57.987Z,934.25
2018-07-19T01:40:57.940Z,934.26
2018-07-19T01:41:57.896Z,934.26
2018-07-19T01:42:57.949Z,934.29
2018-07-19T01:43:57.803Z,934.29
2018-07-19T01:44:57.758Z,934.28
2018-07-19T01:45:57.713Z,934.31
2018-07-19T01:46:57.666Z,934.35
2018-07-19T01:47:57.823Z,934.35
2018-07-19T01:48:57.878Z,934.38
2018-07-19T01:49:57.531Z,934.38
2018-07-19T01:50:57.690Z,934.33
2018-07-19T01:51:57.439Z,934.31
2018-07-19T01:52:57.396Z,934.37
2018-07-19T01:53:57.350Z,934.33
2018-07-19T01:54:57.404Z,934.36
2018-07-19T01:55:57.257Z,934.31
2018-07-19T01:56:57.211Z,934.35
2018-07-19T01:57:57.168Z,934.35
2018-07-19T01:58:57.122Z,934.38
2018-07-19T01:59:57.191Z,934.32
2018-07-19T02:00:57.029Z,934.32
2018-07-19T02:01:56.983Z,934.31
2018-07-19T02:02:56.939Z,934.27
2018-07-19T02:03:56.894Z,934.32
2018-07-19T02:04:56.847Z,934.32
2018-07-19T02:05:56.901Z,934.31
2018-07-19T02:06:56.755Z,934.29
2018-07-19T02:07:56.710Z,934.30
2018-07-19T02:08:56.666Z,934.31
2018-07-19T02:09:56.620Z,934.27
2018-07-19T02:10:56.776Z,934.27
2018-07-19T02:11:56.628Z,934.27
2018-07-19T02:12:56.482Z,934.27
2018-07-19T02:13:56.639Z,934.23
2018-07-19T02:14:56.391Z,934.26
2018-07-19T02:15:56.346Z,934.25
2018-07-19T02:16:56.300Z,934.26
2018-07-19T02:18:00.614Z,934.21
2018-07-19T02:18:56.209Z,934.19
2018-07-19T02:19:56.163Z,934.20
2018-07-19T02:20:56.118Z,934.21
2018-07-19T02:21:56.072Z,934.20
2018-07-19T02:22:56.127Z,934.20
2018-07-19T02:23:55.981Z,934.14
2018-07-19T02:24:55.936Z,934.16
2018-07-19T02:25:55.890Z,934.14
2018-07-19T02:26:55.845Z,934.14
2018-07-19T02:27:55.798Z,934.15
2018-07-19T02:28:55.853Z,934.16
2018-07-19T02:29:55.711Z,934.10
2018-07-19T02:30:55.668Z,934.16
2018-07-19T02:31:55.620Z,934.16
2018-07-19T02:32:55.574Z,934.14
2018-07-19T02:33:55.530Z,934.14
2018-07-19T02:34:55.584Z,934.16
2018-07-19T02:35:55.440Z,934.13
2018-07-19T02:36:55.392Z,934.15
2018-07-19T02:37:55.346Z,934.16
2018-07-19T02:38:55.301Z,934.15
2018-07-19T02:39:55.255Z,934.15
2018-07-19T02:40:55.317Z,934.14
2018-07-19T02:41:55.164Z,934.12
2018-07-19T02:42:55.117Z,934.11
2018-07-19T02:43:55.158Z,934.11
2018-07-19T02:44:55.034Z,934.09
2018-07-19T02:45:54.982Z,934.06
2018-07-19T02:46:55.035Z,934.07
2018-07-19T02:47:54.890Z,934.04
2018-07-19T02:48:54.844Z,934.04
2018-07-19T02:49:54.798Z,934.05
2018-07-19T02:50:54.756Z,934.04
2018-07-19T02:51:54.707Z,934.03
2018-07-19T02:52:54.761Z,934.00
2018-07-19T02:53:54.615Z,934.02
2018-07-19T02:54:54.568Z,933.99
2018-07-19T02:55:54.524Z,933.97
2018-07-19T02:56:54.478Z,934.01
2018-07-19T02:57:58.440Z,933.97
2018-07-19T02:58:54.386Z,934.00
2018-07-19T02:59:54.542Z,934.02
2018-07-19T03:00:54.296Z,934.00
2018-07-19T03:01:54.249Z,933.97
2018-07-19T03:02:54.203Z,933.96
2018-07-19T03:03:54.257Z,933.95
2018-07-19T03:04:54.112Z,933.96
2018-07-19T03:05:53.993Z,933.98
2018-07-19T03:06:53.939Z,933.97
2018-07-19T03:07:53.904Z,933.96
2018-07-19T03:08:53.853Z,933.96
2018-07-19T03:09:53.795Z,933.95
2018-07-19T03:10:53.754Z,933.95
2018-07-19T03:11:53.711Z,933.94
2018-07-19T03:12:53.674Z,933.93
2018-07-19T03:13:53.616Z,933.93
2018-07-19T03:14:53.570Z,933.97
2018-07-19T03:15:53.528Z,933.95
2018-07-19T03:16:53.487Z,933.96
2018-07-19T03:17:53.456Z,933.93
2018-07-19T03:18:53.399Z,933.93
2018-07-19T03:19:53.353Z,933.96
2018-07-19T03:20:53.304Z,933.97
2018-07-19T03:21:53.259Z,933.98
2018-07-19T03:22:53.209Z,933.94
2018-07-19T03:23:53.162Z,933.93
2018-07-19T03:24:53.136Z,933.92
2018-07-19T03:25:53.073Z,933.95
2018-07-19T03:26:53.028Z,933.93
2018-07-19T03:27:52.974Z,933.89
2018-07-19T03:28:52.939Z,933.93
2018-07-19T03:29:52.883Z,933.91
2018-07-19T03:30:52.919Z,933.92
2018-07-19T03:31:52.799Z,933.87
2018-07-19T03:32:52.752Z,933.83
2018-07-19T03:33:52.699Z,933.92
2018-07-19T03:34:52.657Z,933.91
2018-07-19T03:35:52.607Z,933.87
2018-07-19T03:36:52.569Z,933.85
2018-07-19T03:37:52.502Z,933.89
2018-07-19T03:38:52.471Z,933.86
2018-07-19T03:39:52.431Z,933.86
2018-07-19T03:40:52.390Z,933.89
2018-07-19T03:41:52.341Z,933.91
2018-07-19T03:42:52.286Z,933.88
2018-07-19T03:43:52.249Z,933.87
2018-07-19T03:44:52.194Z,933.91
2018-07-19T03:45:52.153Z,933.84
2018-07-19T03:46:52.102Z,933.87
2018-07-19T03:47:52.065Z,933.84
2018-07-19T03:48:52.019Z,933.86
2018-07-19T03:49:51.967Z,933.88
2018-07-19T03:50:51.908Z,933.84
2018-07-19T03:51:51.881Z,933.78
2018-07-19T03:52:51.827Z,933.80
2018-07-19T03:53:51.789Z,933.75
2018-07-19T03:54:51.744Z,933.74
2018-07-19T03:55:51.698Z,933.80
2018-07-19T03:56:51.652Z,933.77
2018-07-19T03:57:51.606Z,933.78
2018-07-19T03:58:51.562Z,933.73
2018-07-19T03:59:51.514Z,933.77
2018-07-19T04:00:51.481Z,933.75
2018-07-19T04:01:51.432Z,933.67
2018-07-19T04:02:51.376Z,933.65
2018-07-19T04:03:51.334Z,933.65
2018-07-19T04:04:51.294Z,933.68
2018-07-19T04:05:51.245Z,933.64
2018-07-19T04:06:51.193Z,933.67
2018-07-19T04:07:51.148Z,933.64
2018-07-19T04:08:51.117Z,933.61
2018-07-19T04:09:51.058Z,933.63
2018-07-19T04:10:51.000Z,933.62
2018-07-19T04:11:50.981Z,933.64
2018-07-19T04:12:50.909Z,933.59
2018-07-19T04:13:50.868Z,933.63
2018-07-19T04:14:50.825Z,933.60
2018-07-19T04:15:50.767Z,933.63
2018-07-19T04:16:50.740Z,933.66
2018-07-19T04:17:50.694Z,933.59
2018-07-19T04:18:50.645Z,933.67
2018-07-19T04:19:50.570Z,933.64
2018-07-19T04:20:50.551Z,933.64
2018-07-19T04:21:50.505Z,933.65
2018-07-19T04:22:50.459Z,933.65
2018-07-19T04:23:50.409Z,933.64
2018-07-19T04:24:50.367Z,933.65
2018-07-19T04:25:50.319Z,933.60
2018-07-19T04:26:50.275Z,933.61
2018-07-19T04:27:50.203Z,933.60
2018-07-19T04:28:50.180Z,933.57
2018-07-19T04:29:50.131Z,933.59
2018-07-19T04:30:50.062Z,933.65
2018-07-19T04:31:50.041Z,933.61
2018-07-19T04:32:50.003Z,933.60
2018-07-19T04:33:49.954Z,933.54
2018-07-19T04:34:49.896Z,933.54
2018-07-19T04:35:49.854Z,933.53
2018-07-19T04:36:49.804Z,933.52
2018-07-19T04:37:49.761Z,933.48
2018-07-19T04:38:49.701Z,933.48
2018-07-19T04:39:49.680Z,933.48
2018-07-19T04:40:49.619Z,933.47
2018-07-19T04:41:49.574Z,933.44
2018-07-19T04:42:49.523Z,933.45
2018-07-19T04:43:49.491Z,933.42
2018-07-19T04:44:49.439Z,933.46
2018-07-19T04:45:49.397Z,933.42
2018-07-19T04:46:49.355Z,933.40
2018-07-19T04:47:49.296Z,933.37
2018-07-19T04:48:49.270Z,933.37
2018-07-19T04:49:49.191Z,933.37
2018-07-19T04:50:49.151Z,933.37
2018-07-19T04:51:49.125Z,933.35
2018-07-19T04:52:49.074Z,933.35
2018-07-19T04:53:49.014Z,933.35
2018-07-19T04:54:48.983Z,933.31
2018-07-19T04:55:48.918Z,933.29
2018-07-19T04:56:48.869Z,933.26
2018-07-19T04:57:48.843Z,933.27
2018-07-19T04:58:48.795Z,933.22
2018-07-19T04:59:48.756Z,933.22
2018-07-19T05:00:48.698Z,933.20
2018-07-19T05:01:48.678Z,933.27
2018-07-19T05:02:48.611Z,933.29
2018-07-19T05:03:48.552Z,933.29
2018-07-19T05:04:48.522Z,933.19
2018-07-19T05:05:48.470Z,933.23
2018-07-19T05:06:48.430Z,933.21
2018-07-19T05:07:48.361Z,933.22
2018-07-19T05:08:48.342Z,933.24
2018-07-19T05:09:48.289Z,933.16
2018-07-19T05:10:48.239Z,933.21
2018-07-19T05:11:48.188Z,933.19
2018-07-19T05:12:48.146Z,933.17
2018-07-19T05:13:48.110Z,933.15
2018-07-19T05:14:48.055Z,933.13
2018-07-19T05:15:48.015Z,933.16
2018-07-19T05:16:47.961Z,933.16
2018-07-19T05:17:47.928Z,933.12
2018-07-19T05:18:47.872Z,933.11
2018-07-19T05:19:47.825Z,933.12
2018-07-19T05:20:47.787Z,933.09
2018-07-19T05:21:47.739Z,933.09
2018-07-19T05:22:47.686Z,933.11
2018-07-19T05:23:47.644Z,933.10
2018-07-19T05:24:47.607Z,933.10
2018-07-19T05:25:47.551Z,933.06
2018-07-19T05:26:47.480Z,933.10
2018-07-19T05:27:47.512Z,933.06
2018-07-19T05:28:47.415Z,933.10
2018-07-19T05:29:47.385Z,933.07
2018-07-19T05:30:47.313Z,933.06
2018-07-19T05:31:47.279Z,933.09
2018-07-19T05:32:47.231Z,933.10
2018-07-19T05:33:47.187Z,933.06
2018-07-19T05:34:47.142Z,933.07
2018-07-19T05:35:47.090Z,933.05
2018-07-19T05:36:47.039Z,933.07
2018-07-19T05:37:47.006Z,933.06
2018-07-19T05:38:46.952Z,933.05
2018-07-19T05:39:46.906Z,933.07
2018-07-19T05:40:46.849Z,933.03
2018-07-19T05:41:46.809Z,933.06
2018-07-19T05:42:46.762Z,933.08
2018-07-19T05:43:46.731Z,933.06
2018-07-19T05:44:46.684Z,933.03
2018-07-19T05:45:46.627Z,933.02
2018-07-19T05:46:46.555Z,933.03
2018-07-19T05:47:46.531Z,933.05
2018-07-19T05:48:46.485Z,933.01
2018-07-19T05:49:46.453Z,933.03
2018-07-19T05:50:46.401Z,933.02
2018-07-19T05:51:46.341Z,933.03
2018-07-19T05:52:46.303Z,933.01
2018-07-19T05:53:46.246Z,933.01
2018-07-19T05:54:46.206Z,933.01
2018-07-19T05:55:46.175Z,933.04
2018-07-19T05:56:46.118Z,933.04
2018-07-19T05:57:46.062Z,933.05
2018-07-19T05:58:46.016Z,932.99
2018-07-19T05:59:45.976Z,933.01
2018-07-19T06:00:45.924Z,933.04
2018-07-19T06:01:45.884Z,933.01
2018-07-19T06:02:45.843Z,932.99
2018-07-19T06:03:45.784Z,933.07
2018-07-19T06:04:45.724Z,933.02
2018-07-19T06:05:45.702Z,933.02
2018-07-19T06:06:45.645Z,933.02
2018-07-19T06:07:45.612Z,933.05
2018-07-19T06:08:45.556Z,933.01
2018-07-19T06:09:45.598Z,933.03
2018-07-19T06:10:45.451Z,933.03
2018-07-19T06:11:45.413Z,932.99
2018-07-19T06:12:45.374Z,933.00
2018-07-19T06:13:45.331Z,933.04
2018-07-19T06:14:45.278Z,933.01
2018-07-19T06:15:45.221Z,932.98
2018-07-19T06:16:45.195Z,933.00
2018-07-19T06:17:45.147Z,932.97
2018-07-19T06:18:45.176Z,933.00
2018-07-19T06:19:45.054Z,932.98
2018-07-19T06:20:45.010Z,932.98
2018-07-19T06:21:44.962Z,932.95
2018-07-19T06:22:44.915Z,932.96
2018-07-19T06:23:44.856Z,932.95
2018-07-19T06:24:44.809Z,932.90
2018-07-19T06:25:44.767Z,932.93
2018-07-19T06:26:44.729Z,932.93
2018-07-19T06:27:44.652Z,932.90
2018-07-19T06:28:44.637Z,932.93
2018-07-19T06:29:44.578Z,932.89
2018-07-19T06:30:44.537Z,932.92
2018-07-19T06:31:44.499Z,932.91
2018-07-19T06:32:44.440Z,932.90
2018-07-19T06:33:44.400Z,932.89
2018-07-19T06:34:44.350Z,932.88
2018-07-19T06:35:44.309Z,932.87
2018-07-19T06:36:44.272Z,932.87
2018-07-19T06:37:44.214Z,932.78
2018-07-19T06:38:44.161Z,932.87
2018-07-19T06:39:44.098Z,932.83
2018-07-19T06:40:44.070Z,932.85
2018-07-19T06:41:44.025Z,932.85
2018-07-19T06:42:43.978Z,932.87
2018-07-19T06:43:43.938Z,932.85
2018-07-19T06:44:43.890Z,932.85
2018-07-19T06:45:43.843Z,932.88
2018-07-19T06:46:43.774Z,932.83
2018-07-19T06:47:43.741Z,932.83
2018-07-19T06:48:43.694Z,932.85
2018-07-19T06:49:43.657Z,932.84
2018-07-19T06:50:43.602Z,932.83
2018-07-19T06:51:43.566Z,932.89
2018-07-19T06:52:43.526Z,932.84
2018-07-19T06:53:43.469Z,932.87
2018-07-19T06:54:43.414Z,932.87
2018-07-19T06:55:43.380Z,932.85
2018-07-19T06:56:43.332Z,932.82
2018-07-19T06:57:43.279Z,932.83
2018-07-19T06:58:43.255Z,932.83
2018-07-19T06:59:43.192Z,932.87
2018-07-19T07:00:43.146Z,932.82
2018-07-19T07:01:43.098Z,932.84
2018-07-19T07:02:43.059Z,932.80
2018-07-19T07:03:43.037Z,932.78
2018-07-19T07:04:42.975Z,932.78
2018-07-19T07:05:42.913Z,932.82
2018-07-19T07:06:42.841Z,932.79
2018-07-19T07:07:42.824Z,932.83
2018-07-19T07:08:42.776Z,932.80
2018-07-19T07:09:42.727Z,932.82
2018-07-19T07:10:42.683Z,932.79
2018-07-19T07:11:42.638Z,932.82
2018-07-19T07:12:42.581Z,932.80
2018-07-19T07:13:42.524Z,932.77
2018-07-19T07:14:42.495Z,932.76
2018-07-19T07:15:42.451Z,932.75
2018-07-19T07:16:42.416Z,932.77
2018-07-19T07:17:42.354Z,932.82
2018-07-19T07:18:42.308Z,932.80
2018-07-19T07:19:42.267Z,932.80
2018-07-19T07:20:42.231Z,932.75
2018-07-19T07:21:42.165Z,932.83
2018-07-19T07:22:42.124Z,932.85
2018-07-19T07:23:42.052Z,932.82
2018-07-19T07:24:42.027Z,932.80
2018-07-19T07:25:41.982Z,932.79
2018-07-19T07:26:41.933Z,932.80
2018-07-19T07:27:41.885Z,932.81
2018-07-19T07:28:41.840Z,932.78
2018-07-19T07:29:41.801Z,932.84
2018-07-19T07:30:41.744Z,932.78
2018-07-19T07:31:41.732Z,932.79
2018-07-19T07:32:41.655Z,932.83
2018-07-19T07:33:41.612Z,932.74
2018-07-19T07:34:41.563Z,932.72
2018-07-19T07:35:41.514Z,932.71
2018-07-19T07:36:41.470Z,932.66
2018-07-19T07:37:41.427Z,932.70
2018-07-19T07:38:41.372Z,932.70
2018-07-19T07:39:41.332Z,932.64
2018-07-19T07:40:41.288Z,932.69
2018-07-19T07:41:41.236Z,932.65
2018-07-19T07:42:41.187Z,932.69
2018-07-19T07:43:41.136Z,932.65
2018-07-19T07:44:41.096Z,932.66
2018-07-19T07:45:41.056Z,932.71
2018-07-19T07:46:41.003Z,932.65
2018-07-19T07:47:40.949Z,932.65
2018-07-19T07:48:40.902Z,932.74
2018-07-19T07:49:40.855Z,932.69
2018-07-19T07:50:40.810Z,932.75
2018-07-19T07:51:40.749Z,932.76
2018-07-19T07:52:40.729Z,932.77
2018-07-19T07:53:40.670Z,932.74
2018-07-19T07:54:40.632Z,932.72
2018-07-19T07:55:40.580Z,932.77
2018-07-19T07:56:40.530Z,932.71
2018-07-19T07:57:40.483Z,932.71
2018-07-19T07:58:40.445Z,932.74
2018-07-19T07:59:40.394Z,932.78
2018-07-19T08:00:40.338Z,932.72
2018-07-19T08:01:40.304Z,932.75
2018-07-19T08:02:40.251Z,932.74
2018-07-19T08:03:40.188Z,932.77
2018-07-19T08:04:40.166Z,932.76
2018-07-19T08:05:40.122Z,932.76
2018-07-19T08:06:40.072Z,932.75
2018-07-19T08:07:40.023Z,932.73
2018-07-19T08:08:39.984Z,932.72
2018-07-19T08:09:39.935Z,932.70
2018-07-19T08:10:39.900Z,932.70
2018-07-19T08:11:39.832Z,932.72
2018-07-19T08:12:39.808Z,932.66
2018-07-19T08:13:39.729Z,932.73
2018-07-19T08:14:39.695Z,932.68
2018-07-19T08:15:39.655Z,932.66
2018-07-19T08:16:39.600Z,932.62
2018-07-19T08:17:39.550Z,932.64
2018-07-19T08:18:39.502Z,932.61
2018-07-19T08:19:39.467Z,932.63
2018-07-19T08:20:39.412Z,932.59
2018-07-19T08:21:39.384Z,932.63
2018-07-19T08:22:39.316Z,932.63
2018-07-19T08:23:39.277Z,932.63
2018-07-19T08:24:39.235Z,932.59
2018-07-19T08:25:39.178Z,932.63
2018-07-19T08:26:39.138Z,932.62
2018-07-19T08:27:39.095Z,932.62
2018-07-19T08:28:39.045Z,932.61
2018-07-19T08:29:38.989Z,932.59
2018-07-19T08:30:38.942Z,932.57
2018-07-19T08:31:38.902Z,932.62
2018-07-19T08:32:38.866Z,932.61
2018-07-19T08:33:38.815Z,932.63
2018-07-19T08:34:38.759Z,932.66
2018-07-19T08:35:38.715Z,932.64
2018-07-19T08:36:38.667Z,932.68
2018-07-19T08:37:38.601Z,932.69
2018-07-19T08:38:38.581Z,932.66
2018-07-19T08:39:38.540Z,932.69
2018-07-19T08:40:38.479Z,932.77
2018-07-19T08:41:38.437Z,932.76
2018-07-19T08:42:38.379Z,932.76
2018-07-19T08:43:38.359Z,932.75
2018-07-19T08:44:38.288Z,932.82
2018-07-19T08:45:38.243Z,932.80
2018-07-19T08:46:38.206Z,932.80
2018-07-19T08:47:38.160Z,932.78
2018-07-19T08:48:38.099Z,932.84
2018-07-19T08:49:38.055Z,932.84
2018-07-19T08:50:38.017Z,932.86
2018-07-19T08:51:38.011Z,932.87
2018-07-19T08:52:37.913Z,932.89
2018-07-19T08:53:37.888Z,932.90
2018-07-19T08:54:37.835Z,932.92
2018-07-19T08:55:37.785Z,932.94
2018-07-19T08:56:37.738Z,932.92
2018-07-19T08:57:37.701Z,932.91
2018-07-19T08:58:37.635Z,932.92
2018-07-19T08:59:37.599Z,932.91
2018-07-19T09:00:37.545Z,932.94
2018-07-19T09:01:37.515Z,932.95
2018-07-19T09:02:37.453Z,932.94
2018-07-19T09:03:37.417Z,932.93
2018-07-19T09:04:37.351Z,932.98
2018-07-19T09:05:37.312Z,932.93
2018-07-19T09:06:37.274Z,932.95
2018-07-19T09:07:37.216Z,932.97
2018-07-19T09:08:37.186Z,932.99
2018-07-19T09:09:37.123Z,932.96
2018-07-19T09:10:37.075Z,932.97
2018-07-19T09:11:37.031Z,932.96
2018-07-19T09:12:36.971Z,932.93
2018-07-19T09:13:36.937Z,933.00
2018-07-19T09:14:36.884Z,932.97
2018-07-19T09:15:36.835Z,933.02
2018-07-19T09:16:36.782Z,933.07
2018-07-19T09:17:36.741Z,933.01
2018-07-19T09:18:36.719Z,933.06
2018-07-19T09:19:36.788Z,933.05
2018-07-19T09:20:36.609Z,933.04
2018-07-19T09:21:36.554Z,933.05
2018-07-19T09:22:36.507Z,933.07
2018-07-19T09:23:36.461Z,933.05
2018-07-19T09:24:36.405Z,933.03
2018-07-19T09:25:36.375Z,933.06
2018-07-19T09:26:36.378Z,933.06
2018-07-19T09:27:36.272Z,933.10
2018-07-19T09:28:36.231Z,933.10
2018-07-19T09:29:36.187Z,933.08
2018-07-19T09:30:36.139Z,933.08
2018-07-19T09:31:36.079Z,933.08
2018-07-19T09:32:36.058Z,933.07
2018-07-19T09:33:35.984Z,933.15
2018-07-19T09:34:35.953Z,933.12
2018-07-19T09:35:35.907Z,933.14
2018-07-19T09:36:35.857Z,933.17
2018-07-19T09:37:35.812Z,933.13
2018-07-19T09:38:35.913Z,933.15
2018-07-19T09:39:35.719Z,933.14
2018-07-19T09:40:35.669Z,933.18
2018-07-19T09:41:35.635Z,933.15
2018-07-19T09:42:35.576Z,933.18
2018-07-19T09:43:35.542Z,933.17
2018-07-19T09:44:35.485Z,933.14
2018-07-19T09:45:35.454Z,933.17
2018-07-19T09:46:35.381Z,933.16
2018-07-19T09:47:35.335Z,933.20
2018-07-19T09:48:35.299Z,933.22
2018-07-19T09:49:35.234Z,933.22
2018-07-19T09:50:35.194Z,933.24
2018-07-19T09:51:35.147Z,933.23
2018-07-19T09:52:35.108Z,933.25
2018-07-19T09:53:35.062Z,933.26
2018-07-19T09:54:35.030Z,933.30
2018-07-19T09:55:34.959Z,933.28
2018-07-19T09:56:34.921Z,933.29
2018-07-19T09:57:34.867Z,933.28
2018-07-19T09:58:34.823Z,933.27
2018-07-19T09:59:34.759Z,933.25
2018-07-19T10:00:34.737Z,933.27
2018-07-19T10:01:34.678Z,933.25
2018-07-19T10:02:34.636Z,933.25
2018-07-19T10:03:34.594Z,933.27
2018-07-19T10:04:34.546Z,933.31
2018-07-19T10:05:34.493Z,933.33
2018-07-19T10:06:34.450Z,933.37
2018-07-19T10:07:34.397Z,933.41
2018-07-19T10:08:34.349Z,933.41
2018-07-19T10:09:34.308Z,933.43
2018-07-19T10:10:34.263Z,933.43
2018-07-19T10:11:34.199Z,933.46
2018-07-19T10:12:34.147Z,933.45
2018-07-19T10:13:34.172Z,933.43
2018-07-19T10:14:34.076Z,933.45
2018-07-19T10:15:34.095Z,933.49
2018-07-19T10:16:33.966Z,933.48
2018-07-19T10:17:33.911Z,933.45
2018-07-19T10:18:33.905Z,933.50
2018-07-19T10:19:33.833Z,933.48
2018-07-19T10:20:33.816Z,933.48
2018-07-19T10:21:33.751Z,933.47
2018-07-19T10:22:33.702Z,933.53
2018-07-19T10:23:33.694Z,933.55
2018-07-19T10:24:33.601Z,933.54
2018-07-19T10:25:33.541Z,933.55
2018-07-19T10:26:33.529Z,933.63
2018-07-19T10:27:33.474Z,933.63
2018-07-19T10:28:33.447Z,933.65
2018-07-19T10:29:33.389Z,933.66
2018-07-19T10:30:33.321Z,933.66
2018-07-19T10:31:33.298Z,933.68
2018-07-19T10:32:33.301Z,933.70
2018-07-19T10:33:33.192Z,933.72
2018-07-19T10:34:33.161Z,933.93
2018-07-19T10:35:33.101Z,934.19
2018-07-19T10:36:33.043Z,934.41
2018-07-19T10:37:33.059Z,934.60
2018-07-19T10:38:32.963Z,934.67
2018-07-19T10:39:32.906Z,934.68
2018-07-19T10:40:32.949Z,934.71
2018-07-19T10:41:32.829Z,934.71
2018-07-19T10:42:32.786Z,934.76
2018-07-19T10:43:32.723Z,934.77
2018-07-19T10:44:32.686Z,934.79
2018-07-19T10:45:32.652Z,934.83
2018-07-19T10:46:32.619Z,934.85
2018-07-19T10:47:32.561Z,934.91
2018-07-19T10:48:32.530Z,934.89
2018-07-19T10:49:32.500Z,934.84
2018-07-19T10:50:32.458Z,934.83
2018-07-19T10:51:32.395Z,934.88
2018-07-19T10:52:32.348Z,934.91
2018-07-19T10:53:32.328Z,934.90
2018-07-19T10:54:32.277Z,934.97
2018-07-19T10:55:32.242Z,934.97
2018-07-19T10:56:32.220Z,934.97
2018-07-19T10:57:32.195Z,935.02
2018-07-19T10:58:32.119Z,934.99
2018-07-19T10:59:32.091Z,935.00
2018-07-19T11:00:32.051Z,935.08
2018-07-19T11:01:32.015Z,935.06
2018-07-19T11:02:31.976Z,935.05
2018-07-19T11:03:31.941Z,935.05
2018-07-19T11:04:31.903Z,935.03
2018-07-19T11:05:31.860Z,935.05
2018-07-19T11:06:31.836Z,935.06
2018-07-19T11:07:31.789Z,934.99
2018-07-19T11:08:31.765Z,934.90
2018-07-19T11:09:31.798Z,934.96
2018-07-19T11:10:31.684Z,934.92
2018-07-19T11:11:31.649Z,934.93
2018-07-19T11:12:31.623Z,934.95
2018-07-19T11:13:31.580Z,934.89
2018-07-19T11:14:31.540Z,934.92
2018-07-19T11:15:31.518Z,934.89
2018-07-19T11:16:31.492Z,934.90
2018-07-19T11:17:31.455Z,934.87
2018-07-19T11:18:31.422Z,934.91
2018-07-19T11:19:31.388Z,934.94
2018-07-19T11:20:31.364Z,934.84
2018-07-19T11:21:31.297Z,934.59
2018-07-19T11:22:31.275Z,934.39
2018-07-19T11:23:31.216Z,934.42
2018-07-19T11:24:31.175Z,934.42
2018-07-19T11:25:31.162Z,934.44
2018-07-19T11:26:31.129Z,934.48
2018-07-19T11:27:31.081Z,934.49
2018-07-19T11:28:31.045Z,934.46
2018-07-19T11:29:31.018Z,934.49
2018-07-19T11:30:30.969Z,934.48
2018-07-19T11:31:30.927Z,934.55
2018-07-19T11:32:30.895Z,934.54
2018-07-19T11:33:30.863Z,934.57
2018-07-19T11:34:30.810Z,934.60
2018-07-19T11:35:30.769Z,934.56
2018-07-19T11:36:30.741Z,934.60
2018-07-19T11:37:30.691Z,934.55
2018-07-19T11:38:30.651Z,934.58
2018-07-19T11:39:30.607Z,934.60
2018-07-19T11:40:30.569Z,934.56
2018-07-19T11:41:30.517Z,934.56
2018-07-19T11:42:30.485Z,934.52
2018-07-19T11:43:30.442Z,934.57
2018-07-19T11:44:30.391Z,934.58
2018-07-19T11:45:30.366Z,934.53
2018-07-19T11:46:30.325Z,934.52
2018-07-19T11:47:30.286Z,934.52
2018-07-19T11:48:30.217Z,934.57
2018-07-19T11:49:30.183Z,934.56
2018-07-19T11:50:30.145Z,934.60
2018-07-19T11:51:30.104Z,934.57
2018-07-19T11:52:30.059Z,934.55
2018-07-19T11:53:30.001Z,934.59
2018-07-19T11:54:29.963Z,934.61
2018-07-19T11:55:29.953Z,934.60
2018-07-19T11:56:29.864Z,934.59
2018-07-19T11:57:29.854Z,934.64
2018-07-19T11:58:29.807Z,934.61
2018-07-19T11:59:29.750Z,934.64
2018-07-19T12:00:29.705Z,934.62
2018-07-19T12:01:29.672Z,934.63
2018-07-19T12:02:29.625Z,934.65
2018-07-19T12:03:29.591Z,934.67
2018-07-19T12:04:29.533Z,934.69
2018-07-19T12:05:29.563Z,934.68
2018-07-19T12:06:29.453Z,934.65
2018-07-19T12:07:29.399Z,934.69
2018-07-19T12:08:29.356Z,934.68
2018-07-19T12:09:29.321Z,934.68
2018-07-19T12:10:29.278Z,934.66
2018-07-19T12:11:29.236Z,934.66
2018-07-19T12:12:29.187Z,934.63
2018-07-19T12:13:29.150Z,934.68
2018-07-19T12:14:29.093Z,934.65
2018-07-19T12:15:29.088Z,934.66
2018-07-19T12:16:29.018Z,934.70
2018-07-19T12:17:28.970Z,934.69
2018-07-19T12:18:28.927Z,934.73
2018-07-19T12:19:28.875Z,934.74
2018-07-19T12:20:28.840Z,934.81
2018-07-19T12:21:28.790Z,934.77
2018-07-19T12:22:28.769Z,934.77
2018-07-19T12:23:28.714Z,934.73
2018-07-19T12:24:28.661Z,934.74
2018-07-19T12:25:28.617Z,934.77
2018-07-19T12:26:28.568Z,934.80
2018-07-19T12:27:28.510Z,934.76